createdAt,value
2018-09-15T00:02:10.417Z,94.30
2018-09-15T00:04:40.011Z,94.30
2018-09-15T00:07:09.645Z,94.40
2018-09-15T00:09:39.352Z,94.50
2018-09-15T00:12:08.945Z,94.60
2018-09-15T00:14:38.567Z,94.60
2018-09-15T00:17:08.257Z,94.80
2018-09-15T00:19:37.828Z,94.80
2018-09-15T00:22:07.420Z,95.00
2018-09-15T00:24:36.999Z,95.10
2018-09-15T00:27:06.685Z,95.20
2018-09-15T00:29:36.280Z,95.10
2018-09-15T00:32:05.949Z,95.10
2018-09-15T00:34:35.681Z,94.90
2018-09-15T00:37:05.351Z,94.90
2018-09-15T00:39:34.931Z,94.60
2018-09-15T00:42:04.510Z,94.30
2018-09-15T00:44:34.157Z,94.00
2018-09-15T00:47:03.773Z,93.80
2018-09-15T00:49:33.423Z,93.30
2018-09-15T00:52:03.043Z,93.00
2018-09-15T00:54:32.734Z,92.70
2018-09-15T00:57:02.370Z,92.70
2018-09-15T00:59:31.926Z,92.50
2018-09-15T01:02:01.612Z,92.20
2018-09-15T01:04:31.273Z,92.20
2018-09-15T01:07:00.874Z,92.40
2018-09-15T01:09:30.454Z,92.30
2018-09-15T01:12:00.236Z,92.30
2018-09-15T01:14:29.931Z,92.40
2018-09-15T01:16:59.528Z,92.50
2018-09-15T01:19:29.202Z,93.00
2018-09-15T01:21:58.831Z,93.20
2018-09-15T01:24:28.442Z,93.50
2018-09-15T01:26:58.172Z,93.50
2018-09-15T01:29:27.771Z,93.80
2018-09-15T01:31:57.469Z,93.90
2018-09-15T01:34:27.123Z,93.90
2018-09-15T01:36:56.719Z,93.80
2018-09-15T01:39:26.304Z,93.90
2018-09-15T01:41:56.013Z,93.90
2018-09-15T01:44:25.562Z,93.80
2018-09-15T01:46:55.206Z,93.90
2018-09-15T01:49:24.767Z,93.70
2018-09-15T01:51:54.450Z,93.70
2018-09-15T01:54:24.157Z,93.70
2018-09-15T01:56:53.779Z,93.80
2018-09-15T01:59:23.389Z,93.90
2018-09-15T02:01:53.041Z,94.00
2018-09-15T02:04:22.590Z,94.10
2018-09-15T02:06:52.630Z,94.30
2018-09-15T02:09:22.261Z,94.10
2018-09-15T02:11:51.814Z,94.30
2018-09-15T02:14:21.496Z,94.40
2018-09-15T02:16:51.119Z,94.40
2018-09-15T02:19:20.692Z,94.40
2018-09-15T02:21:50.569Z,94.60
2018-09-15T02:24:20.293Z,94.60
2018-09-15T02:26:50.016Z,94.60
2018-09-15T02:29:19.593Z,94.60
2018-09-15T02:31:49.306Z,94.50
2018-09-15T02:34:18.981Z,94.50
2018-09-15T02:36:48.580Z,94.70
2018-09-15T02:39:18.271Z,94.20
2018-09-15T02:41:47.893Z,94.50
2018-09-15T02:44:17.534Z,94.70
2018-09-15T02:46:47.144Z,94.60
2018-09-15T02:49:16.747Z,94.00
2018-09-15T02:51:46.380Z,94.30
2018-09-15T02:54:16.048Z,94.60
2018-09-15T02:56:45.653Z,94.70
2018-09-15T02:59:15.301Z,95.00
2018-09-15T03:01:44.989Z,95.30
2018-09-15T03:04:14.608Z,95.20
2018-09-15T03:06:44.239Z,95.40
2018-09-15T03:09:13.996Z,95.40
2018-09-15T03:11:43.653Z,95.20
2018-09-15T03:14:13.308Z,95.10
2018-09-15T03:16:42.911Z,95.00
2018-09-15T03:19:12.564Z,95.50
2018-09-15T03:21:42.200Z,95.40
2018-09-15T03:24:11.820Z,95.00
2018-09-15T03:26:41.372Z,95.20
2018-09-15T03:29:11.082Z,95.10
2018-09-15T03:31:40.811Z,95.30
2018-09-15T03:34:10.413Z,94.70
2018-09-15T03:36:40.169Z,94.90
2018-09-15T03:39:11.762Z,95.30
2018-09-15T03:41:42.063Z,95.30
2018-09-15T03:44:11.769Z,95.70
2018-09-15T03:46:41.391Z,95.60
2018-09-15T03:49:10.976Z,95.70
2018-09-15T03:51:40.614Z,95.70
2018-09-15T03:54:12.867Z,95.50
2018-09-15T03:56:42.473Z,95.50
2018-09-15T03:59:12.040Z,95.70
2018-09-15T04:01:41.698Z,95.70
2018-09-15T04:04:11.321Z,95.10
2018-09-15T04:06:40.993Z,95.20
2018-09-15T04:09:11.621Z,95.30
2018-09-15T04:11:41.185Z,95.30
2018-09-15T04:14:10.800Z,95.90
2018-09-15T04:16:40.523Z,96.30
2018-09-15T04:19:10.265Z,96.20
2018-09-15T04:21:39.821Z,96.50
2018-09-15T04:24:09.514Z,96.60
2018-09-15T04:26:39.205Z,96.60
2018-09-15T04:29:08.830Z,96.70
2018-09-15T04:31:38.557Z,96.60
2018-09-15T04:34:08.173Z,96.60
2018-09-15T04:36:37.756Z,96.70
2018-09-15T04:39:10.702Z,97.00
2018-09-15T04:41:40.620Z,96.70
2018-09-15T04:44:10.234Z,96.70
2018-09-15T04:46:39.865Z,96.60
2018-09-15T04:49:14.107Z,96.60
2018-09-15T04:51:44.060Z,96.50
2018-09-15T04:54:14.095Z,96.50
2018-09-15T04:56:43.699Z,96.50
2018-09-15T04:59:13.319Z,96.20
2018-09-15T05:01:42.905Z,96.20
2018-09-15T05:04:12.580Z,96.30
2018-09-15T05:08:11.315Z,96.30
2018-09-15T05:10:40.963Z,96.40
2018-09-15T05:13:10.589Z,96.50
2018-09-15T05:15:40.452Z,96.50
2018-09-15T05:18:10.169Z,96.30
2018-09-15T05:20:40.093Z,96.20
2018-09-15T05:23:09.859Z,95.90
2018-09-15T05:25:40.562Z,95.80
2018-09-15T05:28:10.229Z,95.70
2018-09-15T05:30:39.826Z,95.60
2018-09-15T05:33:09.518Z,95.50
2018-09-15T05:35:41.240Z,95.40
2018-09-15T05:38:11.212Z,95.40
2018-09-15T05:40:40.809Z,95.40
2018-09-15T05:43:10.465Z,95.70
2018-09-15T05:45:40.997Z,95.80
2018-09-15T05:48:10.707Z,95.80
2018-09-15T05:50:42.348Z,95.80
2018-09-15T05:53:12.069Z,95.70
2018-09-15T05:55:41.784Z,95.60
2018-09-15T05:58:11.531Z,95.30
2018-09-15T06:00:41.378Z,94.90
2018-09-15T06:03:12.060Z,94.90
2018-09-15T06:05:41.760Z,95.20
2018-09-15T06:08:16.919Z,94.70
2018-09-15T06:10:46.619Z,94.80
2018-09-15T06:13:16.359Z,94.60
2018-09-15T06:15:49.948Z,94.50
2018-09-15T06:18:19.606Z,94.70
2018-09-15T06:20:49.236Z,94.80
2018-09-15T06:23:18.820Z,95.00
2018-09-15T06:25:48.413Z,94.90
2018-09-15T06:28:18.037Z,94.80
2018-09-15T06:30:47.612Z,94.80
2018-09-15T06:33:17.303Z,94.50
2018-09-15T06:35:46.883Z,94.50
2018-09-15T06:38:16.481Z,94.60
2018-09-15T06:40:46.243Z,94.50
2018-09-15T06:43:15.858Z,94.50
2018-09-15T06:45:45.635Z,94.40
2018-09-15T06:48:15.213Z,94.20
2018-09-15T06:50:44.786Z,94.00
2018-09-15T06:53:14.383Z,94.00
2018-09-15T06:55:44.006Z,93.50
2018-09-15T06:58:13.627Z,93.50
2018-09-15T07:00:43.292Z,93.60
2018-09-15T07:03:12.867Z,93.60
2018-09-15T07:05:42.627Z,93.60
2018-09-15T07:08:12.289Z,94.00
2018-09-15T07:10:41.858Z,94.40
2018-09-15T07:13:11.863Z,94.50
2018-09-15T07:15:41.561Z,94.40
2018-09-15T07:18:11.128Z,94.50
2018-09-15T07:20:40.709Z,94.60
2018-09-15T07:23:10.406Z,94.50
2018-09-15T07:25:39.949Z,94.40
2018-09-15T07:28:09.580Z,94.50
2018-09-15T07:30:39.197Z,94.20
2018-09-15T07:33:08.819Z,94.00
2018-09-15T07:35:38.382Z,94.10
2018-09-15T07:38:07.987Z,93.90
2018-09-15T07:40:37.540Z,93.70
2018-09-15T07:43:07.221Z,93.70
2018-09-15T07:45:36.782Z,93.60
2018-09-15T07:48:06.406Z,93.50
2018-09-15T07:50:36.019Z,93.20
2018-09-15T07:53:05.835Z,93.00
2018-09-15T07:55:35.467Z,93.20
2018-09-15T07:58:05.109Z,93.00
2018-09-15T08:00:34.702Z,92.90
2018-09-15T08:03:04.378Z,92.90
2018-09-15T08:05:33.984Z,92.50
2018-09-15T08:08:03.541Z,92.60
2018-09-15T08:10:33.191Z,92.70
2018-09-15T08:13:02.806Z,92.20
2018-09-15T08:15:32.428Z,92.20
2018-09-15T08:18:02.075Z,91.90
2018-09-15T08:20:31.675Z,91.90
2018-09-15T08:23:01.262Z,91.60
2018-09-15T08:25:30.859Z,91.60
2018-09-15T08:28:00.461Z,91.00
2018-09-15T08:30:30.164Z,91.80
2018-09-15T08:32:59.852Z,91.30
2018-09-15T08:35:29.482Z,91.30
2018-09-15T08:37:59.153Z,91.40
2018-09-15T08:40:28.795Z,91.60
2018-09-15T08:42:58.447Z,91.90
2018-09-15T08:45:28.564Z,91.40
2018-09-15T08:47:58.139Z,91.60
2018-09-15T08:50:27.764Z,91.90
2018-09-15T08:52:57.398Z,92.00
2018-09-15T08:55:26.973Z,91.60
2018-09-15T08:57:56.628Z,92.00
2018-09-15T09:00:26.329Z,91.20
2018-09-15T09:02:55.884Z,91.30
2018-09-15T09:05:25.685Z,91.30
2018-09-15T09:07:57.429Z,90.90
2018-09-15T09:10:27.145Z,91.40
2018-09-15T09:12:57.803Z,91.20
2018-09-15T09:15:29.703Z,91.30
2018-09-15T09:17:59.988Z,92.00
2018-09-15T09:20:29.681Z,90.80
2018-09-15T09:23:01.455Z,91.10
2018-09-15T09:25:31.154Z,90.40
2018-09-15T09:28:00.770Z,90.40
2018-09-15T09:30:32.474Z,88.40
2018-09-15T09:33:02.180Z,89.00
2018-09-15T09:35:31.771Z,89.10
2018-09-15T09:38:01.429Z,90.30
2018-09-15T09:40:31.081Z,89.40
2018-09-15T09:43:00.779Z,90.00
2018-09-15T09:45:30.403Z,90.10
2018-09-15T09:48:00.104Z,88.50
2018-09-15T09:50:29.721Z,89.30
2018-09-15T09:52:59.406Z,88.50
2018-09-15T09:55:28.988Z,88.30
2018-09-15T09:57:58.614Z,87.10
2018-09-15T10:00:33.463Z,86.80
2018-09-15T10:03:03.077Z,85.80
2018-09-15T10:05:33.315Z,85.90
2018-09-15T10:08:02.901Z,86.80
2018-09-15T10:10:32.538Z,85.80
2018-09-15T10:13:02.150Z,86.10
2018-09-15T10:15:31.703Z,88.00
2018-09-15T10:18:01.366Z,85.70
2018-09-15T10:20:31.040Z,86.30
2018-09-15T10:23:00.607Z,85.70
2018-09-15T10:25:30.363Z,85.50
2018-09-15T10:27:59.929Z,86.30
2018-09-15T10:30:29.495Z,85.10
2018-09-15T10:32:59.154Z,85.30
2018-09-15T10:35:28.759Z,84.30
2018-09-15T10:37:58.354Z,83.10
2018-09-15T10:40:28.059Z,84.60
2018-09-15T10:42:57.683Z,83.40
2018-09-15T10:45:27.649Z,84.00
2018-09-15T10:47:57.250Z,84.10
2018-09-15T10:50:26.874Z,83.80
2018-09-15T10:52:56.469Z,83.50
2018-09-15T10:55:26.068Z,82.00
2018-09-15T10:57:55.753Z,83.60
2018-09-15T11:00:25.412Z,85.00
2018-09-15T11:02:55.184Z,83.60
2018-09-15T11:05:24.810Z,82.20
2018-09-15T11:07:54.420Z,82.70
2018-09-15T11:10:24.069Z,81.60
2018-09-15T11:12:53.658Z,82.60
2018-09-15T11:15:23.297Z,80.40
2018-09-15T11:17:52.955Z,82.80
2018-09-15T11:20:22.545Z,82.40
2018-09-15T11:22:52.282Z,82.20
2018-09-15T11:25:21.823Z,82.50
2018-09-15T11:27:51.552Z,81.70
2018-09-15T11:30:21.294Z,82.60
2018-09-15T11:32:50.879Z,81.40
2018-09-15T11:35:20.536Z,82.40
2018-09-15T11:37:50.204Z,81.80
2018-09-15T11:40:19.997Z,81.70
2018-09-15T11:42:49.610Z,83.20
2018-09-15T11:45:19.318Z,81.60
2018-09-15T11:47:48.984Z,81.40
2018-09-15T11:50:18.613Z,80.40
2018-09-15T11:52:48.869Z,80.30
2018-09-15T11:55:18.893Z,81.70
2018-09-15T11:57:48.628Z,80.60
2018-09-15T12:00:24.058Z,78.90
2018-09-15T12:02:53.778Z,80.30
2018-09-15T12:05:23.375Z,80.50
2018-09-15T12:07:53.040Z,80.00
2018-09-15T12:10:22.724Z,79.80
2018-09-15T12:12:52.370Z,78.70
2018-09-15T12:15:22.065Z,79.10
2018-09-15T12:17:51.689Z,78.30
2018-09-15T12:22:58.275Z,77.60
2018-09-15T12:25:27.890Z,77.90
2018-09-15T12:27:57.562Z,79.80
2018-09-15T12:30:27.178Z,79.10
2018-09-15T12:32:56.760Z,77.70
2018-09-15T12:35:26.361Z,78.70
2018-09-15T12:37:55.988Z,77.90
2018-09-15T12:40:25.561Z,77.40
2018-09-15T12:42:55.329Z,76.60
2018-09-15T12:45:24.946Z,76.00
2018-09-15T12:47:54.568Z,76.20
2018-09-15T12:50:24.256Z,77.70
2018-09-15T12:52:53.797Z,76.90
2018-09-15T12:55:23.350Z,77.50
2018-09-15T12:57:53.125Z,77.50
2018-09-15T13:00:22.750Z,76.60
2018-09-15T13:02:52.441Z,77.90
2018-09-15T13:05:22.049Z,76.10
2018-09-15T13:07:51.646Z,75.80
2018-09-15T13:10:21.281Z,76.60
2018-09-15T13:12:51.028Z,76.00
2018-09-15T13:15:20.687Z,76.40
2018-09-15T13:17:50.332Z,76.20
2018-09-15T13:20:19.988Z,76.00
2018-09-15T13:22:49.636Z,76.20
2018-09-15T13:25:19.290Z,76.70
2018-09-15T13:27:48.858Z,76.00
2018-09-15T13:30:18.475Z,76.40
2018-09-15T13:32:48.069Z,76.00
2018-09-15T13:35:17.638Z,75.60
2018-09-15T13:37:47.275Z,75.40
2018-09-15T13:40:16.902Z,75.10
2018-09-15T13:42:46.526Z,75.10
2018-09-15T13:45:16.184Z,75.60
2018-09-15T13:47:45.738Z,76.60
2018-09-15T13:50:15.317Z,74.80
2018-09-15T13:52:44.943Z,74.80
2018-09-15T13:55:14.522Z,74.30
2018-09-15T13:57:44.116Z,74.10
2018-09-15T14:00:13.709Z,75.00
2018-09-15T14:02:44.512Z,75.00
2018-09-15T14:05:15.163Z,75.20
2018-09-15T14:07:44.722Z,75.60
2018-09-15T14:10:19.013Z,75.80
2018-09-15T14:12:43.917Z,75.50
2018-09-15T14:15:13.538Z,75.60
2018-09-15T14:17:43.125Z,75.10
2018-09-15T14:20:12.729Z,75.10
2018-09-15T14:22:42.401Z,74.60
2018-09-15T14:25:12.000Z,74.50
2018-09-15T14:27:41.628Z,73.90
2018-09-15T14:30:11.258Z,74.30
2018-09-15T14:32:40.859Z,74.40
2018-09-15T14:35:10.488Z,75.00
2018-09-15T14:37:40.163Z,74.80
2018-09-15T14:40:09.760Z,74.80
2018-09-15T14:42:39.355Z,74.60
2018-09-15T14:45:08.980Z,74.60
2018-09-15T14:47:38.558Z,74.10
2018-09-15T14:50:09.071Z,74.80
2018-09-15T14:52:38.708Z,73.20
2018-09-15T14:55:08.379Z,73.90
2018-09-15T14:57:38.123Z,73.90
2018-09-15T15:00:09.042Z,74.30
2018-09-15T15:02:38.763Z,74.00
2018-09-15T15:05:08.503Z,74.50
2018-09-15T15:07:38.149Z,74.70
2018-09-15T15:10:07.851Z,74.90
2018-09-15T15:12:37.574Z,75.10
2018-09-15T15:15:07.291Z,75.40
2018-09-15T15:17:36.862Z,76.00
2018-09-15T15:20:07.173Z,75.90
2018-09-15T15:22:36.840Z,76.80
2018-09-15T15:25:06.441Z,76.80
2018-09-15T15:27:36.162Z,76.70
2018-09-15T15:30:06.107Z,76.50
2018-09-15T15:32:35.814Z,76.80
2018-09-15T15:35:05.545Z,78.60
2018-09-15T15:37:35.220Z,80.20
2018-09-15T15:40:04.867Z,80.80
2018-09-15T15:42:34.530Z,81.80
2018-09-15T15:45:04.279Z,81.90
2018-09-15T15:47:33.999Z,82.70
2018-09-15T15:50:03.718Z,82.30
2018-09-15T15:52:33.325Z,83.00
2018-09-15T15:55:02.994Z,83.30
2018-09-15T15:57:32.633Z,83.20
2018-09-15T16:00:02.240Z,82.90
2018-09-15T16:02:31.796Z,83.80
2018-09-15T16:05:01.441Z,84.00
2018-09-15T16:07:31.072Z,83.70
2018-09-15T16:10:00.715Z,84.00
2018-09-15T16:12:30.374Z,84.20
2018-09-15T16:14:59.927Z,84.00
2018-09-15T16:17:29.526Z,85.80
2018-09-15T16:19:59.131Z,84.60
2018-09-15T16:22:28.724Z,84.40
2018-09-15T16:24:58.273Z,86.10
2018-09-15T16:27:27.924Z,87.30
2018-09-15T16:29:57.496Z,87.50
2018-09-15T16:32:27.141Z,88.50
2018-09-15T16:34:56.723Z,88.20
2018-09-15T16:37:26.317Z,88.70
2018-09-15T16:39:55.973Z,88.90
2018-09-15T16:42:25.525Z,89.20
2018-09-15T16:44:55.124Z,89.60
2018-09-15T16:47:24.777Z,89.80
2018-09-15T16:49:54.379Z,90.00
2018-09-15T16:52:24.091Z,90.10
2018-09-15T16:54:53.742Z,90.20
2018-09-15T16:57:23.409Z,90.30
2018-09-15T16:59:53.088Z,90.30
2018-09-15T17:02:22.679Z,90.40
2018-09-15T17:04:52.375Z,90.40
2018-09-15T17:07:22.142Z,90.70
2018-09-15T17:09:51.762Z,90.70
2018-09-15T17:12:21.400Z,90.60
2018-09-15T17:14:51.049Z,90.80
2018-09-15T17:17:20.612Z,91.10
2018-09-15T17:19:50.299Z,91.20
2018-09-15T17:22:20.008Z,91.10
2018-09-15T17:24:49.581Z,90.90
2018-09-15T17:27:19.232Z,90.90
2018-09-15T17:29:48.861Z,90.90
2018-09-15T17:32:18.538Z,90.90
2018-09-15T17:34:48.215Z,90.90
2018-09-15T17:37:17.742Z,91.30
2018-09-15T17:39:47.334Z,91.40
2018-09-15T17:42:16.977Z,91.40
2018-09-15T17:44:46.677Z,91.30
2018-09-15T17:47:16.319Z,91.30
2018-09-15T17:49:45.923Z,91.50
2018-09-15T17:52:15.605Z,91.70
2018-09-15T17:54:45.310Z,91.90
2018-09-15T17:57:14.922Z,92.00
2018-09-15T17:59:44.714Z,92.10
2018-09-15T18:02:14.350Z,92.40
2018-09-15T18:04:44.210Z,92.40
2018-09-15T18:07:13.786Z,92.40
2018-09-15T18:09:43.556Z,92.50
2018-09-15T18:12:13.138Z,92.20
2018-09-15T18:14:42.727Z,92.30
2018-09-15T18:17:12.345Z,92.20
2018-09-15T18:19:41.935Z,92.10
2018-09-15T18:22:11.523Z,91.70
2018-09-15T18:24:41.200Z,91.90
2018-09-15T18:27:10.841Z,92.10
2018-09-15T18:29:40.400Z,92.00
2018-09-15T18:32:10.056Z,92.00
2018-09-15T18:34:39.656Z,92.30
2018-09-15T18:37:09.351Z,92.20
2018-09-15T18:39:38.941Z,92.10
2018-09-15T18:42:08.722Z,92.20
2018-09-15T18:44:38.386Z,92.10
2018-09-15T18:47:07.996Z,92.50
2018-09-15T18:49:37.597Z,92.90
2018-09-15T18:52:07.266Z,93.00
2018-09-15T18:54:37.097Z,93.00
2018-09-15T18:57:07.110Z,93.00
2018-09-15T18:59:36.809Z,92.90
2018-09-15T19:02:06.533Z,92.90
2018-09-15T19:04:36.228Z,93.10
2018-09-15T19:07:05.862Z,93.30
2018-09-15T19:09:35.474Z,93.30
2018-09-15T19:12:11.310Z,93.20
2018-09-15T19:14:40.925Z,93.30
2018-09-15T19:17:10.558Z,93.30
2018-09-15T19:19:40.214Z,93.00
2018-09-15T19:22:09.805Z,93.00
2018-09-15T19:24:39.419Z,93.00
2018-09-15T19:27:09.038Z,93.00
2018-09-15T19:29:38.696Z,93.00
2018-09-15T19:32:08.382Z,93.10
2018-09-15T19:34:37.958Z,93.00
2018-09-15T19:37:07.569Z,92.90
2018-09-15T19:39:37.202Z,92.80
2018-09-15T19:42:06.253Z,93.00
2018-09-15T19:44:35.831Z,93.30
2018-09-15T19:47:05.667Z,93.50
2018-09-15T19:49:35.211Z,93.60
2018-09-15T19:52:04.843Z,93.20
2018-09-15T19:54:34.463Z,93.30
2018-09-15T19:57:04.106Z,93.30
2018-09-15T19:59:33.679Z,93.40
2018-09-15T20:02:03.340Z,93.50
2018-09-15T20:04:32.927Z,93.30
2018-09-15T20:07:02.586Z,93.30
2018-09-15T20:09:32.203Z,93.40
2018-09-15T20:12:01.814Z,93.50
2018-09-15T20:14:31.508Z,93.50
2018-09-15T20:16:59.523Z,93.50
2018-09-15T20:19:27.469Z,93.50
2018-09-15T20:21:55.462Z,93.50
2018-09-15T20:24:25.077Z,93.50
2018-09-15T20:26:54.722Z,93.40
2018-09-15T20:29:24.329Z,93.20
2018-09-15T20:31:53.923Z,93.30
2018-09-15T20:34:23.686Z,93.10
2018-09-15T20:36:53.426Z,92.80
2018-09-15T20:39:23.015Z,93.00
2018-09-15T20:41:52.605Z,93.00
2018-09-15T20:44:22.270Z,92.90
2018-09-15T20:46:51.779Z,93.10
2018-09-15T20:49:21.385Z,92.80
2018-09-15T20:51:51.350Z,93.00
2018-09-15T20:54:21.108Z,92.90
2018-09-15T20:56:50.747Z,93.00
2018-09-15T20:59:20.423Z,92.90
2018-09-15T21:01:49.982Z,92.90
2018-09-15T21:04:19.780Z,93.20
2018-09-15T21:06:49.507Z,93.10
2018-09-15T21:09:19.089Z,93.00
2018-09-15T21:11:48.693Z,93.00
2018-09-15T21:14:18.372Z,93.10
2018-09-15T21:16:47.963Z,93.20
2018-09-15T21:19:17.646Z,93.30
2018-09-15T21:21:47.301Z,93.20
2018-09-15T21:24:16.920Z,93.00
2018-09-15T21:26:46.568Z,93.10
2018-09-15T21:29:16.239Z,93.30
2018-09-15T21:31:45.851Z,93.40
2018-09-15T21:34:15.496Z,92.90
2018-09-15T21:36:45.128Z,93.00
2018-09-15T21:39:14.780Z,93.00
2018-09-15T21:41:44.375Z,93.10
2018-09-15T21:44:14.013Z,93.20
2018-09-15T21:46:43.681Z,93.20
2018-09-15T21:49:13.292Z,93.30
2018-09-15T21:51:42.896Z,93.30
2018-09-15T21:54:12.511Z,93.40
2018-09-15T21:56:42.152Z,93.50
2018-09-15T21:59:11.729Z,93.50
2018-09-15T22:01:41.341Z,93.50
2018-09-15T22:04:16.132Z,93.30
2018-09-15T22:06:45.849Z,93.40
2018-09-15T22:09:21.928Z,93.60
2018-09-15T22:11:51.512Z,93.60
2018-09-15T22:14:21.173Z,93.70
2018-09-15T22:16:50.727Z,93.50
2018-09-15T22:19:20.270Z,93.40
2018-09-15T22:21:49.819Z,93.60
2018-09-15T22:24:19.473Z,93.60
2018-09-15T22:26:49.095Z,93.70
2018-09-15T22:29:18.669Z,93.60
2018-09-15T22:31:48.466Z,93.50
2018-09-15T22:34:17.995Z,93.70
2018-09-15T22:36:47.578Z,93.80
2018-09-15T22:39:17.143Z,93.90
2018-09-15T22:41:46.681Z,93.80
2018-09-15T22:44:16.200Z,93.90
2018-09-15T22:46:45.793Z,94.00
2018-09-15T22:49:15.323Z,93.80
2018-09-15T22:51:45.021Z,93.90
2018-09-15T22:54:14.633Z,93.90
2018-09-15T22:56:44.232Z,93.80
2018-09-15T22:59:13.820Z,93.70
2018-09-15T23:01:43.432Z,93.60
2018-09-15T23:04:14.817Z,93.60
2018-09-15T23:06:44.387Z,93.50
2018-09-15T23:09:13.954Z,93.40
2018-09-15T23:11:43.577Z,93.80
2018-09-15T23:14:13.146Z,93.90
2018-09-15T23:16:42.726Z,94.00
2018-09-15T23:19:12.356Z,94.20
2018-09-15T23:21:41.933Z,94.20
2018-09-15T23:24:11.511Z,94.20
2018-09-15T23:26:41.076Z,94.10
2018-09-15T23:29:10.660Z,94.10
2018-09-15T23:31:40.229Z,94.20
2018-09-15T23:34:09.840Z,94.10
2018-09-15T23:36:39.443Z,94.10
2018-09-15T23:39:09.841Z,94.10
2018-09-15T23:41:39.433Z,94.10
2018-09-15T23:44:08.966Z,94.20
2018-09-15T23:46:38.573Z,94.10
2018-09-15T23:49:08.100Z,94.10
2018-09-15T23:51:37.650Z,94.10
2018-09-15T23:54:07.412Z,94.10
2018-09-15T23:56:37.009Z,94.00
2018-09-15T23:59:06.937Z,94.00
